sensor_id;sensor_type;location;lat;lon;timestamp;P1;durP1;ratioP1;P2;durP2;ratioP2
28958;SDS011;16066;0.000;0.000;2022-10-17T00:01:04;11.77;;;8.90;;
28958;SDS011;16066;0.000;0.000;2022-10-17T00:03:30;12.47;;;9.23;;
28958;SDS011;16066;0.000;0.000;2022-10-17T00:05:56;12.60;;;9.00;;
28958;SDS011;16066;0.000;0.000;2022-10-17T00:08:21;15.67;;;10.63;;
28958;SDS011;16066;0.000;0.000;2022-10-17T00:10:54;10.80;;;8.17;;
28958;SDS011;16066;0.000;0.000;2022-10-17T00:13:24;12.13;;;9.37;;
28958;SDS011;16066;0.000;0.000;2022-10-17T00:15:50;11.93;;;8.60;;
28958;SDS011;16066;0.000;0.000;2022-10-17T00:18:15;12.20;;;9.17;;
28958;SDS011;16066;0.000;0.000;2022-10-17T00:20:41;14.00;;;10.10;;
28958;SDS011;16066;0.000;0.000;2022-10-17T00:23:06;12.50;;;8.70;;
28958;SDS011;16066;0.000;0.000;2022-10-17T00:25:32;12.63;;;9.80;;
28958;SDS011;16066;0.000;0.000;2022-10-17T00:27:57;11.60;;;8.97;;
28958;SDS011;16066;0.000;0.000;2022-10-17T00:30:23;13.50;;;9.00;;
28958;SDS011;16066;0.000;0.000;2022-10-17T00:32:48;11.80;;;8.83;;
28958;SDS011;16066;0.000;0.000;2022-10-17T00:35:14;12.00;;;9.27;;
28958;SDS011;16066;0.000;0.000;2022-10-17T00:37:39;17.20;;;9.37;;
28958;SDS011;16066;0.000;0.000;2022-10-17T00:40:05;11.50;;;9.07;;
28958;SDS011;16066;0.000;0.000;2022-10-17T00:42:31;12.50;;;9.90;;
28958;SDS011;16066;0.000;0.000;2022-10-17T00:44:58;11.83;;;8.30;;
28958;SDS011;16066;0.000;0.000;2022-10-17T00:47:27;17.60;;;8.60;;
28958;SDS011;16066;0.000;0.000;2022-10-17T00:49:54;11.30;;;8.63;;
28958;SDS011;16066;0.000;0.000;2022-10-17T00:52:20;12.73;;;9.10;;
28958;SDS011;16066;0.000;0.000;2022-10-17T00:54:50;12.67;;;8.33;;
28958;SDS011;16066;0.000;0.000;2022-10-17T00:57:20;11.90;;;9.10;;
28958;SDS011;16066;0.000;0.000;2022-10-17T00:59:47;10.63;;;8.93;;
28958;SDS011;16066;0.000;0.000;2022-10-17T01:02:18;13.33;;;8.47;;
28958;SDS011;16066;0.000;0.000;2022-10-17T01:04:45;10.83;;;8.60;;
28958;SDS011;16066;0.000;0.000;2022-10-17T01:07:13;13.43;;;9.00;;
28958;SDS011;16066;0.000;0.000;2022-10-17T01:09:39;12.83;;;9.23;;
28958;SDS011;16066;0.000;0.000;2022-10-17T01:12:13;12.53;;;9.90;;
28958;SDS011;16066;0.000;0.000;2022-10-17T01:17:51;13.23;;;8.67;;
28958;SDS011;16066;0.000;0.000;2022-10-17T01:31:31;13.20;;;9.60;;
28958;SDS011;16066;0.000;0.000;2022-10-17T01:34:09;12.30;;;9.40;;
28958;SDS011;16066;0.000;0.000;2022-10-17T01:39:19;9.70;;;8.10;;
28958;SDS011;16066;0.000;0.000;2022-10-17T01:41:59;12.67;;;8.90;;
28958;SDS011;16066;0.000;0.000;2022-10-17T01:47:07;12.57;;;9.53;;
28958;SDS011;16066;0.000;0.000;2022-10-17T01:49:37;15.00;;;9.33;;
28958;SDS011;16066;0.000;0.000;2022-10-17T01:52:08;12.10;;;8.80;;
28958;SDS011;16066;0.000;0.000;2022-10-17T01:57:37;14.03;;;9.87;;
28958;SDS011;16066;0.000;0.000;2022-10-17T02:00:10;11.73;;;9.20;;
28958;SDS011;16066;0.000;0.000;2022-10-17T02:02:40;16.70;;;9.67;;
28958;SDS011;16066;0.000;0.000;2022-10-17T02:05:08;13.80;;;9.90;;
28958;SDS011;16066;0.000;0.000;2022-10-17T02:07:34;12.50;;;8.70;;
28958;SDS011;16066;0.000;0.000;2022-10-17T02:10:00;11.77;;;8.80;;
28958;SDS011;16066;0.000;0.000;2022-10-17T02:15:23;13.07;;;8.77;;
28958;SDS011;16066;0.000;0.000;2022-10-17T02:18:15;12.57;;;9.33;;
28958;SDS011;16066;0.000;0.000;2022-10-17T02:21:07;12.90;;;9.13;;
28958;SDS011;16066;0.000;0.000;2022-10-17T02:31:28;11.53;;;8.57;;
28958;SDS011;16066;0.000;0.000;2022-10-17T02:34:11;11.13;;;8.37;;
28958;SDS011;16066;0.000;0.000;2022-10-17T02:36:44;13.97;;;8.73;;
28958;SDS011;16066;0.000;0.000;2022-10-17T02:39:14;12.10;;;9.30;;
28958;SDS011;16066;0.000;0.000;2022-10-17T02:41:40;14.57;;;8.40;;
28958;SDS011;16066;0.000;0.000;2022-10-17T02:44:08;11.40;;;8.33;;
28958;SDS011;16066;0.000;0.000;2022-10-17T02:46:35;14.50;;;10.60;;
28958;SDS011;16066;0.000;0.000;2022-10-17T02:49:16;13.90;;;9.43;;
28958;SDS011;16066;0.000;0.000;2022-10-17T02:51:58;12.40;;;8.80;;
28958;SDS011;16066;0.000;0.000;2022-10-17T02:57:11;12.73;;;9.60;;
28958;SDS011;16066;0.000;0.000;2022-10-17T02:59:58;12.87;;;8.70;;
28958;SDS011;16066;0.000;0.000;2022-10-17T03:02:26;11.57;;;8.87;;
28958;SDS011;16066;0.000;0.000;2022-10-17T03:04:51;10.67;;;8.07;;
28958;SDS011;16066;0.000;0.000;2022-10-17T03:07:17;12.33;;;8.87;;
28958;SDS011;16066;0.000;0.000;2022-10-17T03:09:42;10.57;;;8.13;;
28958;SDS011;16066;0.000;0.000;2022-10-17T03:12:08;12.80;;;9.47;;
28958;SDS011;16066;0.000;0.000;2022-10-17T03:14:34;11.63;;;7.93;;
28958;SDS011;16066;0.000;0.000;2022-10-17T03:16:59;10.80;;;8.73;;
28958;SDS011;16066;0.000;0.000;2022-10-17T03:19:25;11.40;;;9.20;;
28958;SDS011;16066;0.000;0.000;2022-10-17T03:21:50;11.30;;;8.00;;
28958;SDS011;16066;0.000;0.000;2022-10-17T03:24:16;10.90;;;8.03;;
28958;SDS011;16066;0.000;0.000;2022-10-17T03:26:41;12.60;;;9.03;;
28958;SDS011;16066;0.000;0.000;2022-10-17T03:29:07;11.47;;;8.40;;
28958;SDS011;16066;0.000;0.000;2022-10-17T03:31:32;10.63;;;8.23;;
28958;SDS011;16066;0.000;0.000;2022-10-17T03:33:58;10.30;;;7.70;;
28958;SDS011;16066;0.000;0.000;2022-10-17T03:36:25;12.73;;;8.77;;
28958;SDS011;16066;0.000;0.000;2022-10-17T03:38:54;10.70;;;7.97;;
28958;SDS011;16066;0.000;0.000;2022-10-17T03:41:19;10.73;;;7.63;;
28958;SDS011;16066;0.000;0.000;2022-10-17T03:43:45;10.03;;;7.60;;
28958;SDS011;16066;0.000;0.000;2022-10-17T03:46:11;11.30;;;8.63;;
28958;SDS011;16066;0.000;0.000;2022-10-17T03:48:36;12.73;;;9.03;;
28958;SDS011;16066;0.000;0.000;2022-10-17T03:51:03;12.90;;;9.30;;
28958;SDS011;16066;0.000;0.000;2022-10-17T03:53:30;14.70;;;9.60;;
28958;SDS011;16066;0.000;0.000;2022-10-17T03:55:56;14.13;;;9.63;;
28958;SDS011;16066;0.000;0.000;2022-10-17T03:58:28;13.00;;;8.10;;
28958;SDS011;16066;0.000;0.000;2022-10-17T04:00:54;11.83;;;9.10;;
28958;SDS011;16066;0.000;0.000;2022-10-17T04:03:20;14.93;;;9.30;;
28958;SDS011;16066;0.000;0.000;2022-10-17T04:05:45;11.00;;;8.00;;
28958;SDS011;16066;0.000;0.000;2022-10-17T04:08:11;11.27;;;8.73;;
28958;SDS011;16066;0.000;0.000;2022-10-17T04:10:36;11.47;;;8.70;;
28958;SDS011;16066;0.000;0.000;2022-10-17T04:13:02;11.17;;;8.30;;
28958;SDS011;16066;0.000;0.000;2022-10-17T04:15:27;14.50;;;8.60;;
28958;SDS011;16066;0.000;0.000;2022-10-17T04:17:53;12.57;;;8.97;;
28958;SDS011;16066;0.000;0.000;2022-10-17T04:20:18;11.10;;;8.67;;
28958;SDS011;16066;0.000;0.000;2022-10-17T04:22:44;11.90;;;8.40;;
28958;SDS011;16066;0.000;0.000;2022-10-17T04:25:09;11.20;;;8.60;;
28958;SDS011;16066;0.000;0.000;2022-10-17T04:27:35;13.37;;;8.90;;
28958;SDS011;16066;0.000;0.000;2022-10-17T04:30:00;12.20;;;8.07;;
28958;SDS011;16066;0.000;0.000;2022-10-17T04:32:26;11.57;;;8.83;;
28958;SDS011;16066;0.000;0.000;2022-10-17T04:34:51;10.10;;;8.00;;
28958;SDS011;16066;0.000;0.000;2022-10-17T04:37:17;15.43;;;8.27;;
28958;SDS011;16066;0.000;0.000;2022-10-17T04:39:42;12.60;;;8.80;;
28958;SDS011;16066;0.000;0.000;2022-10-17T04:42:08;9.80;;;8.27;;
28958;SDS011;16066;0.000;0.000;2022-10-17T04:44:33;11.33;;;8.60;;
28958;SDS011;16066;0.000;0.000;2022-10-17T04:46:59;12.27;;;8.80;;
28958;SDS011;16066;0.000;0.000;2022-10-17T04:49:25;11.97;;;8.70;;
28958;SDS011;16066;0.000;0.000;2022-10-17T04:51:51;10.93;;;8.03;;
28958;SDS011;16066;0.000;0.000;2022-10-17T04:54:16;12.90;;;8.00;;
28958;SDS011;16066;0.000;0.000;2022-10-17T04:56:42;13.93;;;7.90;;
28958;SDS011;16066;0.000;0.000;2022-10-17T04:59:07;9.87;;;7.63;;
28958;SDS011;16066;0.000;0.000;2022-10-17T05:01:33;12.30;;;8.40;;
28958;SDS011;16066;0.000;0.000;2022-10-17T05:03:58;11.40;;;7.90;;
28958;SDS011;16066;0.000;0.000;2022-10-17T05:06:24;11.63;;;8.87;;
28958;SDS011;16066;0.000;0.000;2022-10-17T05:08:52;11.33;;;7.60;;
28958;SDS011;16066;0.000;0.000;2022-10-17T05:11:21;18.67;;;8.77;;
28958;SDS011;16066;0.000;0.000;2022-10-17T05:13:52;20.27;;;8.17;;
28958;SDS011;16066;0.000;0.000;2022-10-17T05:16:26;11.77;;;7.40;;
28958;SDS011;16066;0.000;0.000;2022-10-17T05:18:53;11.83;;;7.67;;
28958;SDS011;16066;0.000;0.000;2022-10-17T05:21:20;12.30;;;8.00;;
28958;SDS011;16066;0.000;0.000;2022-10-17T05:23:47;12.00;;;7.90;;
28958;SDS011;16066;0.000;0.000;2022-10-17T05:26:12;12.70;;;8.07;;
28958;SDS011;16066;0.000;0.000;2022-10-17T05:28:38;13.13;;;8.70;;
28958;SDS011;16066;0.000;0.000;2022-10-17T05:31:05;11.00;;;8.00;;
28958;SDS011;16066;0.000;0.000;2022-10-17T05:33:32;12.70;;;8.03;;
28958;SDS011;16066;0.000;0.000;2022-10-17T05:35:58;11.40;;;7.73;;
28958;SDS011;16066;0.000;0.000;2022-10-17T05:38:24;12.07;;;8.43;;
28958;SDS011;16066;0.000;0.000;2022-10-17T05:40:50;17.17;;;8.70;;
28958;SDS011;16066;0.000;0.000;2022-10-17T05:43:15;11.63;;;7.90;;
28958;SDS011;16066;0.000;0.000;2022-10-17T05:45:41;13.53;;;8.17;;
28958;SDS011;16066;0.000;0.000;2022-10-17T05:48:06;17.10;;;8.60;;
28958;SDS011;16066;0.000;0.000;2022-10-17T05:50:33;16.73;;;9.90;;
28958;SDS011;16066;0.000;0.000;2022-10-17T05:52:59;16.00;;;8.80;;
28958;SDS011;16066;0.000;0.000;2022-10-17T05:55:24;12.67;;;8.73;;
28958;SDS011;16066;0.000;0.000;2022-10-17T05:57:50;11.97;;;8.50;;
28958;SDS011;16066;0.000;0.000;2022-10-17T06:00:17;13.33;;;7.67;;
28958;SDS011;16066;0.000;0.000;2022-10-17T06:02:44;9.90;;;7.60;;
28958;SDS011;16066;0.000;0.000;2022-10-17T06:05:10;15.70;;;8.90;;
28958;SDS011;16066;0.000;0.000;2022-10-17T06:07:36;12.33;;;7.93;;
28958;SDS011;16066;0.000;0.000;2022-10-17T06:10:02;11.73;;;8.00;;
28958;SDS011;16066;0.000;0.000;2022-10-17T06:12:28;12.50;;;9.17;;
28958;SDS011;16066;0.000;0.000;2022-10-17T06:14:53;13.20;;;9.00;;
28958;SDS011;16066;0.000;0.000;2022-10-17T06:17:19;11.20;;;8.20;;
28958;SDS011;16066;0.000;0.000;2022-10-17T06:19:44;16.67;;;7.90;;
28958;SDS011;16066;0.000;0.000;2022-10-17T06:22:10;11.50;;;7.70;;
28958;SDS011;16066;0.000;0.000;2022-10-17T06:24:36;16.00;;;9.57;;
28958;SDS011;16066;0.000;0.000;2022-10-17T06:27:01;12.00;;;7.80;;
28958;SDS011;16066;0.000;0.000;2022-10-17T06:29:27;18.00;;;8.43;;
28958;SDS011;16066;0.000;0.000;2022-10-17T06:31:52;16.23;;;8.10;;
28958;SDS011;16066;0.000;0.000;2022-10-17T06:34:18;14.17;;;8.07;;
28958;SDS011;16066;0.000;0.000;2022-10-17T06:36:44;14.40;;;9.00;;
28958;SDS011;16066;0.000;0.000;2022-10-17T06:39:09;10.80;;;8.63;;
28958;SDS011;16066;0.000;0.000;2022-10-17T06:41:35;13.87;;;8.00;;
28958;SDS011;16066;0.000;0.000;2022-10-17T06:44:01;13.87;;;8.47;;
28958;SDS011;16066;0.000;0.000;2022-10-17T06:46:32;13.80;;;9.20;;
28958;SDS011;16066;0.000;0.000;2022-10-17T06:48:57;11.33;;;7.63;;
28958;SDS011;16066;0.000;0.000;2022-10-17T06:51:23;12.80;;;7.60;;
28958;SDS011;16066;0.000;0.000;2022-10-17T06:53:48;14.20;;;8.77;;
28958;SDS011;16066;0.000;0.000;2022-10-17T06:56:14;11.53;;;8.77;;
28958;SDS011;16066;0.000;0.000;2022-10-17T06:58:40;13.27;;;8.20;;
28958;SDS011;16066;0.000;0.000;2022-10-17T07:01:07;13.83;;;8.63;;
28958;SDS011;16066;0.000;0.000;2022-10-17T07:03:34;13.03;;;8.77;;
28958;SDS011;16066;0.000;0.000;2022-10-17T07:06:00;12.87;;;8.20;;
28958;SDS011;16066;0.000;0.000;2022-10-17T07:08:26;16.33;;;8.30;;
28958;SDS011;16066;0.000;0.000;2022-10-17T07:10:52;16.30;;;8.80;;
28958;SDS011;16066;0.000;0.000;2022-10-17T07:13:18;20.83;;;9.20;;
28958;SDS011;16066;0.000;0.000;2022-10-17T07:15:44;12.67;;;7.17;;
28958;SDS011;16066;0.000;0.000;2022-10-17T07:18:10;13.43;;;7.20;;
28958;SDS011;16066;0.000;0.000;2022-10-17T07:20:36;9.57;;;6.97;;
28958;SDS011;16066;0.000;0.000;2022-10-17T07:23:02;9.90;;;6.50;;
28958;SDS011;16066;0.000;0.000;2022-10-17T07:25:28;10.70;;;6.10;;
28958;SDS011;16066;0.000;0.000;2022-10-17T07:27:54;6.57;;;4.87;;
28958;SDS011;16066;0.000;0.000;2022-10-17T07:30:19;10.13;;;6.53;;
28958;SDS011;16066;0.000;0.000;2022-10-17T07:32:45;9.90;;;5.53;;
28958;SDS011;16066;0.000;0.000;2022-10-17T07:35:11;6.27;;;4.30;;
28958;SDS011;16066;0.000;0.000;2022-10-17T07:37:37;8.20;;;4.80;;
28958;SDS011;16066;0.000;0.000;2022-10-17T07:40:04;5.90;;;3.60;;
28958;SDS011;16066;0.000;0.000;2022-10-17T07:42:31;5.63;;;3.80;;
28958;SDS011;16066;0.000;0.000;2022-10-17T07:44:57;8.73;;;4.30;;
28958;SDS011;16066;0.000;0.000;2022-10-17T07:47:22;10.60;;;4.10;;
28958;SDS011;16066;0.000;0.000;2022-10-17T07:49:48;4.17;;;3.50;;
28958;SDS011;16066;0.000;0.000;2022-10-17T07:52:14;16.37;;;4.17;;
28958;SDS011;16066;0.000;0.000;2022-10-17T07:54:40;12.60;;;4.20;;
28958;SDS011;16066;0.000;0.000;2022-10-17T07:57:06;4.37;;;3.27;;
28958;SDS011;16066;0.000;0.000;2022-10-17T07:59:33;4.23;;;3.10;;
28958;SDS011;16066;0.000;0.000;2022-10-17T08:01:59;3.63;;;2.90;;
28958;SDS011;16066;0.000;0.000;2022-10-17T08:04:25;6.03;;;3.90;;
28958;SDS011;16066;0.000;0.000;2022-10-17T08:06:51;4.83;;;3.50;;
28958;SDS011;16066;0.000;0.000;2022-10-17T08:09:17;3.90;;;3.00;;
28958;SDS011;16066;0.000;0.000;2022-10-17T08:11:43;5.47;;;3.50;;
28958;SDS011;16066;0.000;0.000;2022-10-17T08:14:09;8.70;;;3.13;;
28958;SDS011;16066;0.000;0.000;2022-10-17T08:16:36;7.00;;;3.43;;
28958;SDS011;16066;0.000;0.000;2022-10-17T08:19:02;7.63;;;3.57;;
28958;SDS011;16066;0.000;0.000;2022-10-17T08:21:28;5.93;;;3.93;;
28958;SDS011;16066;0.000;0.000;2022-10-17T08:23:54;3.87;;;2.70;;
28958;SDS011;16066;0.000;0.000;2022-10-17T08:26:20;8.17;;;3.40;;
28958;SDS011;16066;0.000;0.000;2022-10-17T08:28:46;5.20;;;3.33;;
28958;SDS011;16066;0.000;0.000;2022-10-17T08:31:13;7.00;;;3.23;;
28958;SDS011;16066;0.000;0.000;2022-10-17T08:33:43;4.50;;;3.10;;
28958;SDS011;16066;0.000;0.000;2022-10-17T08:36:11;6.80;;;2.87;;
28958;SDS011;16066;0.000;0.000;2022-10-17T08:38:38;5.13;;;3.40;;
28958;SDS011;16066;0.000;0.000;2022-10-17T08:41:11;9.17;;;4.10;;
28958;SDS011;16066;0.000;0.000;2022-10-17T08:44:00;3.77;;;3.13;;
28958;SDS011;16066;0.000;0.000;2022-10-17T08:46:42;4.03;;;3.13;;
28958;SDS011;16066;0.000;0.000;2022-10-17T08:49:13;7.70;;;3.40;;
28958;SDS011;16066;0.000;0.000;2022-10-17T08:51:54;4.20;;;3.30;;
28958;SDS011;16066;0.000;0.000;2022-10-17T08:54:40;4.53;;;3.87;;
28958;SDS011;16066;0.000;0.000;2022-10-17T08:57:10;8.83;;;3.20;;
28958;SDS011;16066;0.000;0.000;2022-10-17T08:59:40;5.67;;;3.20;;
28958;SDS011;16066;0.000;0.000;2022-10-17T09:08:28;6.13;;;3.57;;
28958;SDS011;16066;0.000;0.000;2022-10-17T09:13:54;4.43;;;3.10;;
28958;SDS011;16066;0.000;0.000;2022-10-17T09:21:57;3.97;;;3.20;;
28958;SDS011;16066;0.000;0.000;2022-10-17T09:25:02;6.20;;;3.43;;
28958;SDS011;16066;0.000;0.000;2022-10-17T09:27:24;4.90;;;3.17;;
28958;SDS011;16066;0.000;0.000;2022-10-17T09:32:53;5.50;;;2.87;;
28958;SDS011;16066;0.000;0.000;2022-10-17T09:35:19;5.73;;;2.83;;
28958;SDS011;16066;0.000;0.000;2022-10-17T09:37:46;7.20;;;2.70;;
28958;SDS011;16066;0.000;0.000;2022-10-17T09:40:17;6.30;;;2.50;;
28958;SDS011;16066;0.000;0.000;2022-10-17T09:42:57;4.37;;;3.43;;
28958;SDS011;16066;0.000;0.000;2022-10-17T09:45:25;6.77;;;2.83;;
28958;SDS011;16066;0.000;0.000;2022-10-17T09:50:31;4.20;;;2.70;;
28958;SDS011;16066;0.000;0.000;2022-10-17T09:55:46;9.67;;;3.17;;
28958;SDS011;16066;0.000;0.000;2022-10-17T09:58:17;8.93;;;3.43;;
28958;SDS011;16066;0.000;0.000;2022-10-17T10:00:45;5.17;;;2.37;;
28958;SDS011;16066;0.000;0.000;2022-10-17T10:03:20;10.97;;;3.10;;
28958;SDS011;16066;0.000;0.000;2022-10-17T10:06:11;5.10;;;3.03;;
28958;SDS011;16066;0.000;0.000;2022-10-17T10:08:53;6.97;;;3.03;;
28958;SDS011;16066;0.000;0.000;2022-10-17T10:11:43;5.53;;;2.90;;
28958;SDS011;16066;0.000;0.000;2022-10-17T10:14:23;7.90;;;3.63;;
28958;SDS011;16066;0.000;0.000;2022-10-17T10:16:57;6.70;;;3.23;;
28958;SDS011;16066;0.000;0.000;2022-10-17T10:19:31;4.80;;;2.83;;
28958;SDS011;16066;0.000;0.000;2022-10-17T10:22:00;3.53;;;2.30;;
28958;SDS011;16066;0.000;0.000;2022-10-17T10:24:26;6.93;;;3.37;;
28958;SDS011;16066;0.000;0.000;2022-10-17T10:26:54;7.47;;;3.03;;
28958;SDS011;16066;0.000;0.000;2022-10-17T10:29:26;6.57;;;3.37;;
28958;SDS011;16066;0.000;0.000;2022-10-17T10:32:16;6.13;;;3.20;;
28958;SDS011;16066;0.000;0.000;2022-10-17T10:37:42;6.00;;;3.57;;
28958;SDS011;16066;0.000;0.000;2022-10-17T10:40:15;7.60;;;2.67;;
28958;SDS011;16066;0.000;0.000;2022-10-17T10:42:51;6.47;;;3.10;;
28958;SDS011;16066;0.000;0.000;2022-10-17T10:50:30;9.90;;;3.57;;
28958;SDS011;16066;0.000;0.000;2022-10-17T10:56:08;7.03;;;2.93;;
28958;SDS011;16066;0.000;0.000;2022-10-17T11:01:48;3.90;;;2.57;;
28958;SDS011;16066;0.000;0.000;2022-10-17T11:07:10;4.60;;;2.53;;
28958;SDS011;16066;0.000;0.000;2022-10-17T11:10:19;4.90;;;3.00;;
28958;SDS011;16066;0.000;0.000;2022-10-17T11:15:46;6.43;;;2.90;;
28958;SDS011;16066;0.000;0.000;2022-10-17T11:20:52;4.97;;;3.10;;
28958;SDS011;16066;0.000;0.000;2022-10-17T11:23:45;9.60;;;4.00;;
28958;SDS011;16066;0.000;0.000;2022-10-17T11:26:24;4.60;;;2.83;;
28958;SDS011;16066;0.000;0.000;2022-10-17T11:28:52;5.63;;;2.70;;
28958;SDS011;16066;0.000;0.000;2022-10-17T11:31:20;4.20;;;3.20;;
28958;SDS011;16066;0.000;0.000;2022-10-17T11:33:50;9.67;;;2.80;;
28958;SDS011;16066;0.000;0.000;2022-10-17T11:36:26;4.27;;;3.10;;
28958;SDS011;16066;0.000;0.000;2022-10-17T11:38:56;4.03;;;2.90;;
28958;SDS011;16066;0.000;0.000;2022-10-17T11:41:27;4.17;;;2.77;;
28958;SDS011;16066;0.000;0.000;2022-10-17T11:46:50;8.23;;;3.00;;
28958;SDS011;16066;0.000;0.000;2022-10-17T11:49:24;4.90;;;2.77;;
28958;SDS011;16066;0.000;0.000;2022-10-17T11:55:16;5.27;;;2.93;;
28958;SDS011;16066;0.000;0.000;2022-10-17T11:57:49;6.23;;;2.90;;
28958;SDS011;16066;0.000;0.000;2022-10-17T12:08:28;7.23;;;3.27;;
28958;SDS011;16066;0.000;0.000;2022-10-17T12:13:58;4.53;;;2.77;;
28958;SDS011;16066;0.000;0.000;2022-10-17T12:21:24;4.80;;;3.00;;
28958;SDS011;16066;0.000;0.000;2022-10-17T12:23:51;6.77;;;3.57;;
28958;SDS011;16066;0.000;0.000;2022-10-17T12:26:24;6.10;;;3.30;;
28958;SDS011;16066;0.000;0.000;2022-10-17T12:28:51;6.27;;;2.97;;
28958;SDS011;16066;0.000;0.000;2022-10-17T12:34:02;4.90;;;3.40;;
28958;SDS011;16066;0.000;0.000;2022-10-17T12:57:40;4.37;;;3.10;;
28958;SDS011;16066;0.000;0.000;2022-10-17T13:03:11;7.27;;;3.07;;
28958;SDS011;16066;0.000;0.000;2022-10-17T13:05:38;4.10;;;2.80;;
28958;SDS011;16066;0.000;0.000;2022-10-17T13:08:06;4.20;;;3.10;;
28958;SDS011;16066;0.000;0.000;2022-10-17T13:10:38;5.17;;;3.33;;
28958;SDS011;16066;0.000;0.000;2022-10-17T13:13:23;6.27;;;3.10;;
28958;SDS011;16066;0.000;0.000;2022-10-17T13:16:01;5.73;;;3.23;;
28958;SDS011;16066;0.000;0.000;2022-10-17T13:18:27;5.43;;;3.43;;
28958;SDS011;16066;0.000;0.000;2022-10-17T13:20:54;5.23;;;3.40;;
28958;SDS011;16066;0.000;0.000;2022-10-17T13:23:32;3.50;;;3.20;;
28958;SDS011;16066;0.000;0.000;2022-10-17T13:26:03;4.73;;;2.70;;
28958;SDS011;16066;0.000;0.000;2022-10-17T13:28:31;5.93;;;3.57;;
28958;SDS011;16066;0.000;0.000;2022-10-17T13:30:57;7.33;;;3.77;;
28958;SDS011;16066;0.000;0.000;2022-10-17T13:33:34;6.13;;;3.43;;
28958;SDS011;16066;0.000;0.000;2022-10-17T13:36:03;8.30;;;3.43;;
28958;SDS011;16066;0.000;0.000;2022-10-17T13:38:33;4.77;;;3.60;;
28958;SDS011;16066;0.000;0.000;2022-10-17T13:41:00;6.70;;;3.27;;
28958;SDS011;16066;0.000;0.000;2022-10-17T13:43:27;7.33;;;3.37;;
28958;SDS011;16066;0.000;0.000;2022-10-17T13:45:56;8.43;;;3.20;;
28958;SDS011;16066;0.000;0.000;2022-10-17T13:48:27;4.50;;;3.70;;
28958;SDS011;16066;0.000;0.000;2022-10-17T13:50:56;4.63;;;3.20;;
28958;SDS011;16066;0.000;0.000;2022-10-17T13:53:34;7.03;;;3.90;;
28958;SDS011;16066;0.000;0.000;2022-10-17T13:56:26;5.90;;;3.00;;
28958;SDS011;16066;0.000;0.000;2022-10-17T13:59:05;6.53;;;3.37;;
28958;SDS011;16066;0.000;0.000;2022-10-17T14:01:42;11.13;;;4.13;;
28958;SDS011;16066;0.000;0.000;2022-10-17T14:04:08;8.53;;;4.17;;
28958;SDS011;16066;0.000;0.000;2022-10-17T14:06:34;12.20;;;3.90;;
28958;SDS011;16066;0.000;0.000;2022-10-17T14:09:41;7.63;;;3.83;;
28958;SDS011;16066;0.000;0.000;2022-10-17T14:12:03;7.20;;;3.57;;
28958;SDS011;16066;0.000;0.000;2022-10-17T14:14:37;12.57;;;4.10;;
28958;SDS011;16066;0.000;0.000;2022-10-17T14:17:14;5.30;;;3.97;;
28958;SDS011;16066;0.000;0.000;2022-10-17T14:19:54;7.60;;;3.67;;
28958;SDS011;16066;0.000;0.000;2022-10-17T14:24:51;7.63;;;3.77;;
28958;SDS011;16066;0.000;0.000;2022-10-17T14:29:59;12.60;;;3.40;;
28958;SDS011;16066;0.000;0.000;2022-10-17T14:32:27;20.33;;;4.53;;
28958;SDS011;16066;0.000;0.000;2022-10-17T14:34:55;8.27;;;3.73;;
28958;SDS011;16066;0.000;0.000;2022-10-17T14:39:49;11.47;;;3.70;;
28958;SDS011;16066;0.000;0.000;2022-10-17T14:42:19;7.43;;;3.57;;
28958;SDS011;16066;0.000;0.000;2022-10-17T14:44:49;7.13;;;3.50;;
28958;SDS011;16066;0.000;0.000;2022-10-17T14:47:19;9.27;;;3.97;;
28958;SDS011;16066;0.000;0.000;2022-10-17T14:49:49;7.00;;;3.87;;
28958;SDS011;16066;0.000;0.000;2022-10-17T14:54:42;15.27;;;3.70;;
28958;SDS011;16066;0.000;0.000;2022-10-17T14:59:42;5.37;;;3.97;;
28958;SDS011;16066;0.000;0.000;2022-10-17T15:02:08;9.20;;;3.80;;
28958;SDS011;16066;0.000;0.000;2022-10-17T15:04:35;5.57;;;3.23;;
28958;SDS011;16066;0.000;0.000;2022-10-17T15:07:01;15.53;;;3.70;;
28958;SDS011;16066;0.000;0.000;2022-10-17T15:09:26;8.17;;;3.33;;
28958;SDS011;16066;0.000;0.000;2022-10-17T15:11:53;14.10;;;3.60;;
28958;SDS011;16066;0.000;0.000;2022-10-17T15:14:20;7.80;;;3.43;;
28958;SDS011;16066;0.000;0.000;2022-10-17T15:16:45;16.50;;;4.50;;
28958;SDS011;16066;0.000;0.000;2022-10-17T15:19:11;6.63;;;3.73;;
28958;SDS011;16066;0.000;0.000;2022-10-17T15:21:38;7.30;;;3.37;;
28958;SDS011;16066;0.000;0.000;2022-10-17T15:24:03;6.03;;;3.60;;
28958;SDS011;16066;0.000;0.000;2022-10-17T15:26:30;5.70;;;3.23;;
28958;SDS011;16066;0.000;0.000;2022-10-17T15:28:57;14.00;;;4.30;;
28958;SDS011;16066;0.000;0.000;2022-10-17T15:31:24;12.87;;;3.93;;
28958;SDS011;16066;0.000;0.000;2022-10-17T15:33:51;8.83;;;3.97;;
28958;SDS011;16066;0.000;0.000;2022-10-17T15:39:02;5.93;;;3.57;;
28958;SDS011;16066;0.000;0.000;2022-10-17T15:41:29;8.80;;;3.23;;
28958;SDS011;16066;0.000;0.000;2022-10-17T15:43:55;7.80;;;3.47;;
28958;SDS011;16066;0.000;0.000;2022-10-17T15:46:28;9.50;;;4.00;;
28958;SDS011;16066;0.000;0.000;2022-10-17T15:48:56;9.03;;;3.93;;
28958;SDS011;16066;0.000;0.000;2022-10-17T15:51:26;8.43;;;3.50;;
28958;SDS011;16066;0.000;0.000;2022-10-17T15:53:52;22.33;;;4.03;;
28958;SDS011;16066;0.000;0.000;2022-10-17T15:56:22;9.53;;;3.60;;
28958;SDS011;16066;0.000;0.000;2022-10-17T15:58:50;20.90;;;3.90;;
28958;SDS011;16066;0.000;0.000;2022-10-17T16:01:34;11.70;;;3.57;;
28958;SDS011;16066;0.000;0.000;2022-10-17T16:03:59;11.23;;;3.50;;
28958;SDS011;16066;0.000;0.000;2022-10-17T16:06:25;12.67;;;3.80;;
28958;SDS011;16066;0.000;0.000;2022-10-17T16:08:51;11.20;;;3.60;;
28958;SDS011;16066;0.000;0.000;2022-10-17T16:11:34;11.60;;;4.50;;
28958;SDS011;16066;0.000;0.000;2022-10-17T16:14:03;9.13;;;3.77;;
28958;SDS011;16066;0.000;0.000;2022-10-17T16:16:31;11.53;;;4.33;;
28958;SDS011;16066;0.000;0.000;2022-10-17T16:18:56;11.90;;;3.70;;
28958;SDS011;16066;0.000;0.000;2022-10-17T16:21:26;7.37;;;3.80;;
28958;SDS011;16066;0.000;0.000;2022-10-17T16:23:54;5.70;;;3.50;;
28958;SDS011;16066;0.000;0.000;2022-10-17T16:26:21;7.60;;;3.57;;
28958;SDS011;16066;0.000;0.000;2022-10-17T16:28:47;5.13;;;3.10;;
28958;SDS011;16066;0.000;0.000;2022-10-17T16:31:25;5.90;;;3.43;;
28958;SDS011;16066;0.000;0.000;2022-10-17T16:33:54;3.93;;;2.80;;
28958;SDS011;16066;0.000;0.000;2022-10-17T16:36:21;7.00;;;3.63;;
28958;SDS011;16066;0.000;0.000;2022-10-17T16:38:47;5.17;;;3.40;;
28958;SDS011;16066;0.000;0.000;2022-10-17T16:41:33;11.13;;;3.30;;
28958;SDS011;16066;0.000;0.000;2022-10-17T16:44:03;6.10;;;2.97;;
28958;SDS011;16066;0.000;0.000;2022-10-17T16:46:31;9.07;;;4.10;;
28958;SDS011;16066;0.000;0.000;2022-10-17T16:48:57;7.33;;;3.37;;
28958;SDS011;16066;0.000;0.000;2022-10-17T16:51:23;5.10;;;4.00;;
28958;SDS011;16066;0.000;0.000;2022-10-17T16:53:49;5.63;;;3.77;;
28958;SDS011;16066;0.000;0.000;2022-10-17T16:56:19;5.03;;;3.33;;
28958;SDS011;16066;0.000;0.000;2022-10-17T16:58:45;8.00;;;3.33;;
28958;SDS011;16066;0.000;0.000;2022-10-17T17:01:12;14.73;;;3.13;;
28958;SDS011;16066;0.000;0.000;2022-10-17T17:03:43;5.57;;;3.90;;
28958;SDS011;16066;0.000;0.000;2022-10-17T17:06:11;7.10;;;3.50;;
28958;SDS011;16066;0.000;0.000;2022-10-17T17:08:40;5.60;;;2.37;;
28958;SDS011;16066;0.000;0.000;2022-10-17T17:11:07;6.93;;;3.33;;
28958;SDS011;16066;0.000;0.000;2022-10-17T17:13:34;9.23;;;3.60;;
28958;SDS011;16066;0.000;0.000;2022-10-17T17:16:02;7.07;;;4.10;;
28958;SDS011;16066;0.000;0.000;2022-10-17T17:18:35;6.93;;;4.60;;
28958;SDS011;16066;0.000;0.000;2022-10-17T17:21:01;17.37;;;7.20;;
28958;SDS011;16066;0.000;0.000;2022-10-17T17:23:29;54.70;;;15.13;;
28958;SDS011;16066;0.000;0.000;2022-10-17T17:25:57;106.77;;;27.50;;
28958;SDS011;16066;0.000;0.000;2022-10-17T17:28:27;96.23;;;30.70;;
28958;SDS011;16066;0.000;0.000;2022-10-17T17:30:53;98.53;;;29.63;;